createdAt,value
2023-02-16T00:00:22.221Z,99063.16
2023-02-16T00:02:49.287Z,99054.50
2023-02-16T00:05:30.539Z,99052.47
2023-02-16T00:07:58.590Z,99045.38
2023-02-16T00:10:26.912Z,99023.88
2023-02-16T00:13:25.814Z,99001.91
2023-02-16T00:15:52.275Z,99016.66
2023-02-16T00:18:21.543Z,99021.19
2023-02-16T00:20:49.177Z,99009.47
2023-02-16T00:23:16.414Z,99002.59
2023-02-16T00:25:43.751Z,99008.72
2023-02-16T00:28:19.068Z,98991.75
2023-02-16T00:30:46.622Z,98980.00
2023-02-16T00:33:15.921Z,98949.53
2023-02-16T00:35:43.256Z,98955.50
2023-02-16T00:38:09.998Z,98946.84
2023-02-16T00:40:36.916Z,98939.94
2023-02-16T00:43:03.889Z,98937.34
2023-02-16T00:45:34.253Z,98939.28
2023-02-16T00:48:00.727Z,98920.03
2023-02-16T00:50:30.739Z,98913.72
2023-02-16T00:53:03.284Z,98907.34
2023-02-16T00:55:34.575Z,98893.56
2023-02-16T00:58:26.831Z,98902.81
2023-02-16T01:01:15.041Z,98908.00
2023-02-16T01:03:42.751Z,98882.25
2023-02-16T01:06:29.602Z,98872.00
2023-02-16T01:09:28.954Z,98851.84
2023-02-16T01:11:56.168Z,98842.22
2023-02-16T01:14:23.065Z,98849.03
2023-02-16T01:16:49.501Z,98850.72
2023-02-16T01:19:16.240Z,98828.72
2023-02-16T01:21:42.689Z,98837.50
2023-02-16T01:24:09.479Z,98855.22
2023-02-16T01:26:40.883Z,98858.72
2023-02-16T01:29:13.212Z,98882.72
2023-02-16T01:31:40.987Z,98888.63
2023-02-16T01:34:07.490Z,98891.66
2023-02-16T01:36:37.552Z,98890.25
2023-02-16T01:39:05.056Z,98876.72
2023-02-16T01:41:37.262Z,98877.38
2023-02-16T01:44:17.905Z,98858.22
2023-02-16T01:46:52.270Z,98807.31
2023-02-16T01:49:20.233Z,98825.59
2023-02-16T01:52:15.681Z,98835.13
2023-02-16T01:54:49.702Z,98795.56
2023-02-16T01:57:54.002Z,98801.44
2023-02-16T02:00:32.140Z,98750.22
2023-02-16T02:03:20.595Z,98777.91
2023-02-16T02:05:49.680Z,98754.41
2023-02-16T02:08:57.345Z,98738.50
2023-02-16T02:11:33.831Z,98729.34
2023-02-16T02:14:13.487Z,98708.69
2023-02-16T02:16:40.050Z,98699.00
2023-02-16T02:19:07.168Z,98696.78
2023-02-16T02:22:10.643Z,98679.19
2023-02-16T02:25:14.219Z,98662.25
2023-02-16T02:27:57.590Z,98656.25
2023-02-16T02:30:42.195Z,98639.16
2023-02-16T02:33:26.732Z,98606.22
2023-02-16T02:36:11.658Z,98614.13
2023-02-16T02:38:44.101Z,98587.25
2023-02-16T02:41:19.072Z,98559.19
2023-02-16T02:44:02.623Z,98557.53
2023-02-16T02:46:35.245Z,98534.25
2023-02-16T02:49:02.221Z,98522.94
2023-02-16T02:51:30.429Z,98524.75
2023-02-16T02:54:36.250Z,98523.28
2023-02-16T02:57:53.829Z,98516.78
2023-02-16T03:00:51.967Z,98468.22
2023-02-16T03:03:32.972Z,98489.41
2023-02-16T03:06:11.649Z,98494.81
2023-02-16T03:08:42.169Z,98499.13
2023-02-16T03:11:32.077Z,98500.31
2023-02-16T03:14:04.905Z,98492.63
2023-02-16T03:16:36.980Z,98504.25
2023-02-16T03:19:25.840Z,98504.06
2023-02-16T03:22:12.152Z,98516.13
2023-02-16T03:24:57.512Z,98512.84
2023-02-16T03:27:49.969Z,98499.13
2023-02-16T03:30:18.454Z,98481.97
2023-02-16T03:32:46.172Z,98492.88
2023-02-16T03:35:13.322Z,98479.13
2023-02-16T03:37:40.917Z,98490.81
2023-02-16T03:40:29.341Z,98476.41
2023-02-16T03:42:57.907Z,98494.06
2023-02-16T03:45:25.334Z,98492.78
2023-02-16T03:47:53.835Z,98498.75
2023-02-16T03:50:21.148Z,98483.22
2023-02-16T03:52:47.817Z,98487.59
2023-02-16T03:55:15.053Z,98474.38
2023-02-16T03:57:41.552Z,98468.03
2023-02-16T04:00:08.536Z,98480.31
2023-02-16T04:02:38.282Z,98478.19
2023-02-16T04:05:05.232Z,98478.81
2023-02-16T04:07:32.338Z,98476.31
2023-02-16T04:09:58.879Z,98477.34
2023-02-16T04:12:37.189Z,98478.38
2023-02-16T04:15:09.949Z,98485.34
2023-02-16T04:17:36.739Z,98488.50
2023-02-16T04:20:04.243Z,98462.44
2023-02-16T04:22:33.555Z,98479.56
2023-02-16T04:25:00.133Z,98474.53
2023-02-16T04:27:26.631Z,98484.03
2023-02-16T04:29:53.105Z,98484.22
2023-02-16T04:32:19.983Z,98464.69
2023-02-16T04:34:46.418Z,98472.97
2023-02-16T04:37:12.892Z,98469.16
2023-02-16T04:39:39.431Z,98458.75
2023-02-16T04:42:06.078Z,98467.66
2023-02-16T04:44:41.719Z,98461.72
2023-02-16T04:47:09.846Z,98433.44
2023-02-16T04:49:36.531Z,98456.78
2023-02-16T04:52:04.021Z,98449.44
2023-02-16T04:54:31.611Z,98441.63
2023-02-16T04:56:58.246Z,98443.28
2023-02-16T04:59:24.946Z,98445.53
2023-02-16T05:01:51.350Z,98424.16
2023-02-16T05:04:17.934Z,98439.13
2023-02-16T05:06:44.629Z,98440.41
2023-02-16T05:09:11.395Z,98452.03
2023-02-16T05:12:06.273Z,98459.09
2023-02-16T05:14:50.418Z,98436.06
2023-02-16T05:17:24.941Z,98440.03
2023-02-16T05:19:56.702Z,98440.53
2023-02-16T05:22:23.785Z,98446.28
2023-02-16T05:24:50.453Z,98441.25
2023-02-16T05:27:22.509Z,98449.81
2023-02-16T05:29:53.382Z,98450.94
2023-02-16T05:32:21.138Z,98458.56
2023-02-16T05:34:48.240Z,98453.19
2023-02-16T05:37:16.545Z,98440.69
2023-02-16T05:39:43.236Z,98460.97
2023-02-16T05:42:12.927Z,98423.00
2023-02-16T05:44:39.410Z,98459.66
2023-02-16T05:47:05.955Z,98450.66
2023-02-16T05:49:32.624Z,98446.66
2023-02-16T05:51:59.203Z,98431.03
2023-02-16T05:54:25.875Z,98417.09
2023-02-16T05:56:56.111Z,98422.66
2023-02-16T05:59:23.692Z,98420.38
2023-02-16T06:01:52.143Z,98412.25
2023-02-16T06:04:20.624Z,98426.25
2023-02-16T06:06:47.161Z,98441.16
2023-02-16T06:09:16.998Z,98443.75
2023-02-16T06:11:43.537Z,98441.44
2023-02-16T06:14:15.559Z,98454.53
2023-02-16T06:16:46.705Z,98464.59
2023-02-16T06:19:13.936Z,98463.38
2023-02-16T06:21:40.825Z,98465.44
2023-02-16T06:24:09.041Z,98478.53
2023-02-16T06:26:36.231Z,98481.25
2023-02-16T06:29:03.009Z,98476.59
2023-02-16T06:31:29.711Z,98491.09
2023-02-16T06:34:00.373Z,98493.31
2023-02-16T06:36:26.986Z,98500.47
2023-02-16T06:39:01.309Z,98488.66
2023-02-16T06:41:43.038Z,98495.88
2023-02-16T06:44:15.233Z,98503.06
2023-02-16T06:46:44.232Z,98507.75
2023-02-16T06:49:13.292Z,98533.34
2023-02-16T06:51:40.127Z,98516.41
2023-02-16T06:54:06.682Z,98542.28
2023-02-16T06:56:33.756Z,98539.75
2023-02-16T06:59:00.208Z,98549.91
2023-02-16T07:01:26.631Z,98547.22
2023-02-16T07:03:55.473Z,98560.50
2023-02-16T07:06:26.018Z,98558.25
2023-02-16T07:08:59.754Z,98562.38
2023-02-16T07:11:26.283Z,98572.97
2023-02-16T07:13:52.821Z,98567.34
2023-02-16T07:16:19.420Z,98598.94
2023-02-16T07:18:46.755Z,98601.72
2023-02-16T07:21:13.775Z,98598.44
2023-02-16T07:23:40.258Z,98623.81
2023-02-16T07:26:06.682Z,98627.63
2023-02-16T07:28:33.225Z,98643.53
2023-02-16T07:31:06.492Z,98640.38
2023-02-16T07:33:33.247Z,98617.69
2023-02-16T07:36:11.460Z,98652.94
2023-02-16T07:38:43.594Z,98667.47
2023-02-16T07:41:11.118Z,98661.31
2023-02-16T07:43:40.805Z,98685.94
2023-02-16T07:46:07.259Z,98689.44
2023-02-16T07:48:33.852Z,98713.75
2023-02-16T07:51:13.007Z,98716.72
2023-02-16T07:53:42.338Z,98674.38
2023-02-16T07:56:08.743Z,98725.19
2023-02-16T07:58:35.169Z,98740.94
2023-02-16T08:01:10.900Z,98761.00
2023-02-16T08:03:38.136Z,98790.81
2023-02-16T08:06:15.891Z,98801.28
2023-02-16T08:08:44.846Z,98817.53
2023-02-16T08:11:15.770Z,98826.50
2023-02-16T08:13:42.811Z,98828.88
2023-02-16T08:16:14.981Z,98837.78
2023-02-16T08:18:41.940Z,98861.28
2023-02-16T08:21:14.929Z,98871.50
2023-02-16T08:23:49.375Z,98880.47
2023-02-16T08:26:19.639Z,98848.47
2023-02-16T08:28:50.025Z,98838.91
2023-02-16T08:31:19.067Z,98841.13
2023-02-16T08:33:48.126Z,98827.06
2023-02-16T08:36:23.533Z,98845.28
2023-02-16T08:38:52.229Z,98832.75
2023-02-16T08:41:20.401Z,98847.09
2023-02-16T08:43:48.121Z,98846.97
2023-02-16T08:46:15.916Z,98844.66
2023-02-16T08:48:43.934Z,98850.53
2023-02-16T08:51:20.374Z,98848.50
2023-02-16T08:53:47.108Z,98859.41
2023-02-16T08:56:14.823Z,98861.38
2023-02-16T08:58:41.486Z,98837.72
2023-02-16T09:01:09.503Z,98824.28
2023-02-16T09:03:37.237Z,98837.56
2023-02-16T09:06:06.206Z,98850.81
2023-02-16T09:08:33.239Z,98839.34
2023-02-16T09:11:04.268Z,98825.06
2023-02-16T09:13:31.262Z,98796.81
2023-02-16T09:16:05.452Z,98797.31
2023-02-16T09:18:36.819Z,98804.56
2023-02-16T09:21:07.029Z,98761.38
2023-02-16T09:23:35.714Z,98815.44
2023-02-16T09:26:02.795Z,98830.03
2023-02-16T09:28:30.767Z,98793.53
2023-02-16T09:30:57.379Z,98690.03
2023-02-16T09:33:28.215Z,98813.47
2023-02-16T09:35:55.884Z,98812.19
2023-02-16T09:38:22.877Z,98829.06
2023-02-16T09:40:49.590Z,98828.81
2023-02-16T09:43:39.297Z,98778.13
2023-02-16T09:46:13.396Z,98773.28
2023-02-16T09:48:48.971Z,98777.69
2023-02-16T09:51:44.958Z,98780.63
2023-02-16T09:54:34.988Z,98793.16
2023-02-16T09:57:11.221Z,98805.06
2023-02-16T10:00:14.503Z,98834.31
2023-02-16T10:03:12.198Z,98793.88
2023-02-16T10:05:52.565Z,98855.44
2023-02-16T10:08:30.136Z,98916.81
2023-02-16T10:14:22.451Z,98922.00
2023-02-16T10:17:07.844Z,98967.06
2023-02-16T10:19:41.318Z,98930.44
2023-02-16T10:22:13.113Z,98995.13
2023-02-16T10:24:52.075Z,98979.94
2023-02-16T10:27:21.922Z,98973.00
2023-02-16T10:29:48.545Z,98999.63
2023-02-16T10:32:37.262Z,99058.13
2023-02-16T10:35:17.432Z,99061.16
2023-02-16T10:37:46.857Z,99124.59
2023-02-16T10:40:27.827Z,99094.88
2023-02-16T10:43:04.373Z,99113.28
2023-02-16T10:45:44.400Z,99014.78
2023-02-16T10:48:11.793Z,99000.69
2023-02-16T10:50:46.915Z,99017.16
2023-02-16T10:53:18.688Z,99149.03
2023-02-16T10:55:46.039Z,99136.97
2023-02-16T10:58:39.840Z,99044.66
2023-02-16T11:01:38.083Z,98992.91
2023-02-16T11:04:05.189Z,98983.44
2023-02-16T11:06:36.879Z,98996.53
2023-02-16T11:09:04.541Z,99060.75
2023-02-16T11:11:40.890Z,99121.91
2023-02-16T11:14:21.135Z,99109.63
2023-02-16T11:16:48.145Z,99104.19
2023-02-16T11:19:24.742Z,99064.97
2023-02-16T11:21:58.901Z,99113.53
2023-02-16T11:24:34.260Z,99087.16
2023-02-16T11:27:19.022Z,99168.72
2023-02-16T11:29:45.678Z,99199.41
2023-02-16T11:32:14.671Z,99186.25
2023-02-16T11:34:45.618Z,99162.47
2023-02-16T11:37:29.599Z,99117.13
2023-02-16T11:40:00.015Z,99164.75
2023-02-16T11:42:48.758Z,99159.56
2023-02-16T11:45:40.690Z,99198.97
2023-02-16T11:48:12.848Z,99223.97
2023-02-16T11:50:54.747Z,99255.91
2023-02-16T11:53:27.718Z,99229.13
2023-02-16T11:56:25.129Z,99092.13
2023-02-16T11:59:19.372Z,99127.16
2023-02-16T12:02:13.685Z,99165.75
2023-02-16T12:05:10.650Z,99138.72
2023-02-16T12:07:50.162Z,99081.09
2023-02-16T12:10:35.593Z,99039.91
2023-02-16T12:13:24.311Z,99043.13
2023-02-16T12:16:12.632Z,99012.88
2023-02-16T12:18:56.214Z,99170.53
2023-02-16T12:22:04.174Z,99189.78
2023-02-16T12:24:52.722Z,99176.75
2023-02-16T12:27:57.941Z,99140.53
2023-02-16T12:30:37.071Z,99155.00
2023-02-16T12:33:27.663Z,99213.91
2023-02-16T12:36:31.653Z,99308.97
2023-02-16T12:39:23.996Z,99272.94
2023-02-16T12:42:08.837Z,99383.72
2023-02-16T12:44:42.499Z,99319.06
2023-02-16T12:47:20.993Z,99306.47
2023-02-16T12:49:58.117Z,99270.56
2023-02-16T12:52:37.707Z,99301.69
2023-02-16T12:55:38.388Z,99344.94
2023-02-16T12:58:07.598Z,99329.81
2023-02-16T13:00:52.581Z,99290.66
2023-02-16T13:03:30.256Z,99226.34
2023-02-16T13:06:08.221Z,99190.28
2023-02-16T13:09:00.615Z,99093.44
2023-02-16T13:11:38.855Z,99028.22
2023-02-16T13:14:16.603Z,99075.25
2023-02-16T13:16:51.629Z,99071.69
2023-02-16T13:19:18.975Z,99081.63
2023-02-16T13:21:58.239Z,99059.59
2023-02-16T13:24:41.189Z,99034.97
2023-02-16T13:27:48.861Z,99051.34
2023-02-16T13:30:34.302Z,99000.81
2023-02-16T13:33:22.762Z,98953.38
2023-02-16T13:36:25.344Z,98890.81
2023-02-16T13:39:29.030Z,98899.28
2023-02-16T13:42:22.883Z,98887.25
2023-02-16T13:45:02.752Z,98915.78
2023-02-16T13:47:38.530Z,98895.38
2023-02-16T13:50:24.892Z,98965.84
2023-02-16T13:52:53.837Z,98960.69
2023-02-16T13:55:39.356Z,98959.41
2023-02-16T13:58:14.899Z,98963.13
2023-02-16T14:00:43.834Z,98951.19
2023-02-16T14:03:12.115Z,98954.06
2023-02-16T14:05:50.734Z,98942.72
2023-02-16T14:08:28.233Z,98959.06
2023-02-16T14:10:55.182Z,98994.53
2023-02-16T14:13:37.921Z,98995.31
2023-02-16T14:16:26.645Z,99004.13
2023-02-16T14:19:17.674Z,99023.34
2023-02-16T14:21:47.139Z,98997.03
2023-02-16T14:24:29.562Z,98965.94
2023-02-16T14:27:05.576Z,98999.81
2023-02-16T14:29:34.676Z,99056.25
2023-02-16T14:32:16.488Z,99022.97
2023-02-16T14:34:52.704Z,99037.84
2023-02-16T14:37:30.380Z,98992.47
2023-02-16T14:40:18.046Z,98985.16
2023-02-16T14:42:52.951Z,98962.41
2023-02-16T14:45:44.337Z,98947.84
2023-02-16T14:48:41.171Z,98950.22
2023-02-16T14:51:44.196Z,98935.38
2023-02-16T14:54:30.652Z,98906.13
2023-02-16T14:57:07.148Z,98846.63
2023-02-16T15:00:21.288Z,98849.03
2023-02-16T15:03:03.365Z,98767.47
2023-02-16T15:05:34.282Z,98742.66
2023-02-16T15:08:22.482Z,98689.13
2023-02-16T15:10:58.450Z,98666.81
2023-02-16T15:13:29.551Z,98660.31
2023-02-16T15:15:59.150Z,98648.28
2023-02-16T15:18:32.960Z,98635.22
2023-02-16T15:20:59.600Z,98618.25
2023-02-16T15:23:37.051Z,98604.16
2023-02-16T15:26:19.483Z,98592.31
2023-02-16T15:28:56.179Z,98590.13
2023-02-16T15:31:34.849Z,98573.06
2023-02-16T15:34:14.005Z,98566.50
2023-02-16T15:36:44.172Z,98567.34
2023-02-16T15:39:17.165Z,98554.41
2023-02-16T15:41:48.402Z,98554.66
2023-02-16T15:44:34.397Z,98547.97
2023-02-16T15:47:14.106Z,98538.84
2023-02-16T15:49:40.967Z,98542.81
2023-02-16T15:52:18.158Z,98537.59
2023-02-16T15:54:46.857Z,98535.94
2023-02-16T15:57:30.500Z,98520.81
2023-02-16T16:00:00.169Z,98519.91
2023-02-16T16:02:44.326Z,98529.91
2023-02-16T16:05:24.219Z,98522.66
2023-02-16T16:07:52.590Z,98534.06
2023-02-16T16:10:28.908Z,98532.16
2023-02-16T16:12:59.319Z,98548.50
2023-02-16T16:15:29.219Z,98543.34
2023-02-16T16:17:59.786Z,98541.25
2023-02-16T16:20:30.964Z,98552.00
2023-02-16T16:22:58.907Z,98554.41
2023-02-16T16:25:42.168Z,98551.78
2023-02-16T16:28:13.813Z,98552.50
2023-02-16T16:30:46.862Z,98563.47
2023-02-16T16:33:15.069Z,98576.50
2023-02-16T16:35:44.401Z,98586.78
2023-02-16T16:38:28.994Z,98573.41
2023-02-16T16:40:59.590Z,98584.50
2023-02-16T16:43:33.578Z,98562.44
2023-02-16T16:46:23.671Z,98593.38
2023-02-16T16:48:53.613Z,98612.69
2023-02-16T16:51:41.758Z,98604.81
2023-02-16T16:54:30.393Z,98622.47
2023-02-16T16:56:56.931Z,98618.66
2023-02-16T16:59:23.381Z,98619.63
2023-02-16T17:01:50.412Z,98612.69
2023-02-16T17:04:17.260Z,98611.13
2023-02-16T17:06:43.710Z,98613.16
2023-02-16T17:09:10.139Z,98612.91
2023-02-16T17:11:38.280Z,98591.66
2023-02-16T17:14:26.985Z,98604.66
2023-02-16T17:16:55.107Z,98605.03
2023-02-16T17:19:22.599Z,98614.00
2023-02-16T17:21:49.325Z,98621.25
2023-02-16T17:24:16.397Z,98621.78
2023-02-16T17:26:42.960Z,98624.25
2023-02-16T17:29:09.436Z,98616.53
2023-02-16T17:31:37.553Z,98615.44
2023-02-16T17:34:04.562Z,98609.13
2023-02-16T17:36:31.048Z,98617.47
2023-02-16T17:38:58.264Z,98621.78
2023-02-16T17:41:27.306Z,98624.16
2023-02-16T17:43:54.046Z,98628.34
2023-02-16T17:46:22.077Z,98636.47
2023-02-16T17:48:50.972Z,98637.53
2023-02-16T17:51:20.260Z,98637.06
2023-02-16T17:53:46.714Z,98646.94
2023-02-16T17:56:14.854Z,98661.13
2023-02-16T17:58:44.498Z,98654.69
2023-02-16T18:01:13.902Z,98663.16
2023-02-16T18:03:40.731Z,98673.31
2023-02-16T18:06:07.589Z,98676.63
2023-02-16T18:08:34.114Z,98676.03
2023-02-16T18:11:03.363Z,98692.00
2023-02-16T18:13:30.588Z,98726.06
2023-02-16T18:15:58.353Z,98734.13
2023-02-16T18:18:24.911Z,98763.38
2023-02-16T18:20:51.379Z,98768.28
2023-02-16T18:23:18.008Z,98782.59
2023-02-16T18:25:44.514Z,98755.63
2023-02-16T18:28:18.401Z,98797.72
2023-02-16T18:30:50.582Z,98785.06
2023-02-16T18:33:18.096Z,98777.41
2023-02-16T18:35:44.522Z,98782.28
2023-02-16T18:38:11.016Z,98780.03
2023-02-16T18:40:37.620Z,98778.50
2023-02-16T18:43:04.103Z,98762.28
2023-02-16T18:45:30.591Z,98765.72
2023-02-16T18:47:57.106Z,98765.13
2023-02-16T18:50:23.900Z,98756.28
2023-02-16T18:52:53.017Z,98757.03
2023-02-16T18:55:20.051Z,98745.69
2023-02-16T18:57:46.512Z,98744.69
2023-02-16T19:00:14.850Z,98744.97
2023-02-16T19:02:42.762Z,98748.06
2023-02-16T19:05:10.821Z,98738.03
2023-02-16T19:07:37.371Z,98738.28
2023-02-16T19:10:06.094Z,98728.72
2023-02-16T19:12:32.682Z,98725.84
2023-02-16T19:14:59.096Z,98730.16
2023-02-16T19:17:25.810Z,98728.22
2023-02-16T19:19:52.289Z,98744.66
2023-02-16T19:22:18.855Z,98750.13
2023-02-16T19:24:45.824Z,98756.59
2023-02-16T19:27:12.243Z,98759.22
2023-02-16T19:29:39.824Z,98754.41
2023-02-16T19:32:06.576Z,98765.88
2023-02-16T19:34:34.037Z,98794.72
2023-02-16T19:37:01.134Z,98792.09
2023-02-16T19:39:27.627Z,98798.88
2023-02-16T19:41:54.207Z,98786.38
2023-02-16T19:44:20.737Z,98782.56
2023-02-16T19:46:47.170Z,98784.44
2023-02-16T19:49:14.514Z,98780.66
2023-02-16T19:51:41.967Z,98774.84
2023-02-16T19:54:08.513Z,98784.84
2023-02-16T19:56:36.401Z,98791.06
2023-02-16T19:59:03.243Z,98776.38
2023-02-16T20:01:30.015Z,98779.00
2023-02-16T20:03:57.517Z,98767.56
2023-02-16T20:06:33.644Z,98779.94
2023-02-16T20:09:01.299Z,98772.47
2023-02-16T20:11:28.870Z,98773.28
2023-02-16T20:13:56.680Z,98777.56
2023-02-16T20:16:23.914Z,98776.31
2023-02-16T20:18:50.930Z,98770.16
2023-02-16T20:21:23.940Z,98756.69
2023-02-16T20:23:53.370Z,98750.59
2023-02-16T20:26:26.213Z,98747.03
2023-02-16T20:28:53.862Z,98747.13
2023-02-16T20:31:25.702Z,98729.44
2023-02-16T20:33:53.043Z,98710.56
2023-02-16T20:36:19.786Z,98693.88
2023-02-16T20:38:46.264Z,98700.06
2023-02-16T20:41:14.032Z,98698.59
2023-02-16T20:43:40.508Z,98689.78
2023-02-16T20:46:08.274Z,98672.56
2023-02-16T20:48:35.598Z,98660.88
2023-02-16T20:51:04.947Z,98657.78
2023-02-16T20:53:32.582Z,98647.97
2023-02-16T20:56:08.795Z,98646.91
2023-02-16T20:58:36.741Z,98650.84
2023-02-16T21:01:10.866Z,98634.00
2023-02-16T21:03:37.398Z,98642.00
2023-02-16T21:06:04.392Z,98630.97
2023-02-16T21:08:31.094Z,98621.56
2023-02-16T21:10:57.627Z,98618.81
2023-02-16T21:13:24.042Z,98611.03
2023-02-16T21:15:50.492Z,98614.75
2023-02-16T21:18:16.955Z,98592.34
2023-02-16T21:20:44.917Z,98599.00
2023-02-16T21:23:11.539Z,98597.09
2023-02-16T21:25:38.195Z,98575.09
2023-02-16T21:28:04.657Z,98559.34
2023-02-16T21:30:31.146Z,98551.66
2023-02-16T21:32:58.840Z,98545.91
2023-02-16T21:35:26.361Z,98561.44
2023-02-16T21:37:52.961Z,98538.81
2023-02-16T21:40:39.138Z,98521.84
2023-02-16T21:43:05.574Z,98489.09
2023-02-16T21:45:32.048Z,98477.75
2023-02-16T21:48:16.894Z,98474.09
2023-02-16T21:50:43.339Z,98492.25
2023-02-16T21:53:10.326Z,98523.19
2023-02-16T21:55:56.762Z,98515.94
2023-02-16T21:58:26.726Z,98538.66
2023-02-16T22:00:53.868Z,98537.06
2023-02-16T22:03:20.761Z,98526.38
2023-02-16T22:05:47.365Z,98517.66
2023-02-16T22:08:14.536Z,98496.56
2023-02-16T22:10:41.322Z,98484.34
2023-02-16T22:13:07.850Z,98481.47
2023-02-16T22:15:37.144Z,98474.34
2023-02-16T22:18:06.750Z,98470.63
2023-02-16T22:20:34.784Z,98476.03
2023-02-16T22:23:02.357Z,98500.63
2023-02-16T22:25:28.950Z,98517.19
2023-02-16T22:27:55.876Z,98541.56
2023-02-16T22:30:22.382Z,98559.34
2023-02-16T22:32:51.343Z,98565.66
2023-02-16T22:35:18.100Z,98552.31
2023-02-16T22:37:44.527Z,98566.16
2023-02-16T22:40:11.217Z,98570.09
2023-02-16T22:42:38.191Z,98575.47
2023-02-16T22:45:05.145Z,98574.53
2023-02-16T22:47:34.585Z,98572.34
2023-02-16T22:50:01.089Z,98573.75
2023-02-16T22:52:30.099Z,98577.59
2023-02-16T22:54:56.724Z,98588.69
2023-02-16T22:57:23.175Z,98592.41
2023-02-16T22:59:49.612Z,98586.19
2023-02-16T23:02:16.147Z,98591.66
2023-02-16T23:04:43.380Z,98588.44
2023-02-16T23:07:09.912Z,98595.88
2023-02-16T23:09:36.454Z,98597.41
2023-02-16T23:12:03.264Z,98602.28
2023-02-16T23:14:30.397Z,98612.69
2023-02-16T23:16:56.859Z,98592.16
2023-02-16T23:19:26.216Z,98595.19
2023-02-16T23:21:54.861Z,98600.19
2023-02-16T23:24:23.206Z,98609.03
2023-02-16T23:26:50.287Z,98621.34
2023-02-16T23:29:17.337Z,98636.81
2023-02-16T23:31:46.730Z,98645.44
2023-02-16T23:34:14.012Z,98641.66
2023-02-16T23:36:40.916Z,98646.91
2023-02-16T23:39:11.166Z,98644.03
2023-02-16T23:41:41.195Z,98619.00
2023-02-16T23:44:08.603Z,98629.34
2023-02-16T23:46:35.587Z,98615.50
2023-02-16T23:49:02.089Z,98593.38
2023-02-16T23:51:28.850Z,98571.16
2023-02-16T23:53:56.041Z,98559.00
2023-02-16T23:56:25.607Z,98530.19
2023-02-16T23:58:52.753Z,98519.69
